Arethusa — 9HJR9 — position and weather

sailwx.info

Track history (hours):
 
Tides and Currents Weather Stations Pressure Air Temp Water Temp Dewpoint Dewpoint Depression Visibility Wind Speed Wind Dir Waves Ship Positions

Arethusa

Last reported at 2015-Aug-02 09:33 UTC. Time now 2015-Aug-02 10:18 UTC.
Position N 43°51' E 010°15'.

Length 60 m; draft 3 m.

Type: Passenger vessel. MMSI: 249069000.

Date/timePositionNaut miles runAvg speedWind from/ knotsBaromVisibWave heightAir tempDewpointWater temp
2015-Aug-02 09:33N 43°51' E 010°15'0 0.0
2015-Aug-02 08:33N 43°51' E 010°15'0 0.0
2015-Aug-02 07:34N 43°51' E 010°15'0 0.0
2015-Aug-02 06:34N 43°51' E 010°15'0 0.0
2015-Aug-02 05:34N 43°51' E 010°15'1 1.2
2015-Aug-02 04:33N 43°52' E 010°13'6 6.0
2015-Aug-02 03:33N 43°53' E 010°05'7 6.7
2015-Aug-02 02:33N 43°46' E 010°06'8 8.4
2015-Aug-02 01:34N 43°38' E 010°06'10 9.5
2015-Aug-02 00:33N 43°28' E 010°07'10 9.6
2015-Aug-01 23:29N 43°18' E 010°10'  
2015-Jul-29 17:17N 38°06' E 012°18'811.4
2015-Jul-29 16:34N 38°01' E 012°26'4 3.3
2015-Jul-29 15:27N 38°01' E 012°31'0 0.0
2015-Jul-29 14:27N 38°01' E 012°31'0 0.0
2015-Jul-29 13:30N 38°01' E 012°31'0 0.0
2015-Jul-29 12:30N 38°01' E 012°31'0 0.0
2015-Jul-29 11:30N 38°01' E 012°31'0 0.0
2015-Jul-29 10:33N 38°01' E 012°31'0 0.0
2015-Jul-29 09:33N 38°01' E 012°31'0 0.0
2015-Jul-29 08:33N 38°01' E 012°31'0 0.0
2015-Jul-29 07:33N 38°01' E 012°31'4 4.0
2015-Jul-29 06:33N 38°01' E 012°25'1111.1
2015-Jul-29 05:33N 38°12' E 012°29'15712.1
2015-Jul-28 16:33N 40°31' E 014°04'1311.9
2015-Jul-28 15:30N 40°42' E 014°12'9 0.8
2015-Jul-28 04:27N 40°50' E 014°16'3 2.9
2015-Jul-28 03:33N 40°48' E 014°16'0 0.3
2015-Jul-28 02:32N 40°47' E 014°16'0 0.4
2015-Jul-28 01:33N 40°47' E 014°15'1 0.6
2015-Jul-28 00:33N 40°47' E 014°15'8 8.0
2015-Jul-27 23:33N 40°41' E 014°07'10 9.6
2015-Jul-27 22:33N 40°38' E 013°55'1010.1
2015-Jul-27 21:33N 40°42' E 013°43'9 0.4
2015-Jul-26 22:19N 40°48' E 013°35'810.0
2015-Jul-26 21:33N 40°43' E 013°43'1110.8
2015-Jul-26 20:33N 40°38' E 013°55'1010.2
2015-Jul-26 19:33N 40°42' E 014°07'10 0.7
2015-Jul-26 04:31N 40°48' E 014°17'7 7.0
2015-Jul-26 03:31N 40°41' E 014°16'7 7.0
2015-Jul-26 02:33N 40°35' E 014°17'13911.3
2015-Jul-25 14:15N 38°29' E 015°35'811.6
2015-Jul-25 13:33N 38°22' E 015°40'10 9.9
2015-Jul-25 12:33N 38°13' E 015°37'3 2.6
2015-Jul-25 11:32N 38°11' E 015°33'0 0.0
2015-Jul-25 10:32N 38°11' E 015°33'0 0.0
2015-Jul-25 09:32N 38°11' E 015°33'0 0.0
2015-Jul-25 08:33N 38°11' E 015°33'0 0.0
2015-Jul-25 07:33N 38°11' E 015°33'0 0.0
2015-Jul-25 06:33N 38°11' E 015°33'3 2.8
2015-Jul-25 05:33N 38°12' E 015°37'8 8.4
2015-Jul-25 04:33N 38°04' E 015°36'9 8.7
2015-Jul-25 03:33N 37°55' E 015°39'10 9.5
2015-Jul-25 02:32N 37°52' E 015°51'  
Track history (hours):
 
Tides and Currents Weather Stations Pressure Air Temp Water Temp Dewpoint Dewpoint Depression Visibility Wind Speed Wind Dir Waves Ship Positions

Arethusa

Last reported at 2015-Aug-02 09:33 UTC. Time now 2015-Aug-02 10:18 UTC.
Position N 43°51' E 010°15'.

Length 60 m; draft 3 m.

Type: Passenger vessel. MMSI: 249069000.

Date/timePositionNaut miles runAvg speedWind from/ knotsBaromVisibWave heightAir tempDewpointWater temp
2015-Aug-02 09:33N 43°51' E 010°15'0 0.0
2015-Aug-02 08:33N 43°51' E 010°15'0 0.0
2015-Aug-02 07:34N 43°51' E 010°15'0 0.0
2015-Aug-02 06:34N 43°51' E 010°15'0 0.0
2015-Aug-02 05:34N 43°51' E 010°15'1 1.2
2015-Aug-02 04:33N 43°52' E 010°13'6 6.0
2015-Aug-02 03:33N 43°53' E 010°05'7 6.7
2015-Aug-02 02:33N 43°46' E 010°06'8 8.4
2015-Aug-02 01:34N 43°38' E 010°06'10 9.5
2015-Aug-02 00:33N 43°28' E 010°07'10 9.6
2015-Aug-01 23:29N 43°18' E 010°10'  
2015-Jul-29 17:17N 38°06' E 012°18'811.4
2015-Jul-29 16:34N 38°01' E 012°26'4 3.3
2015-Jul-29 15:27N 38°01' E 012°31'0 0.0
2015-Jul-29 14:27N 38°01' E 012°31'0 0.0
2015-Jul-29 13:30N 38°01' E 012°31'0 0.0
2015-Jul-29 12:30N 38°01' E 012°31'0 0.0
2015-Jul-29 11:30N 38°01' E 012°31'0 0.0
2015-Jul-29 10:33N 38°01' E 012°31'0 0.0
2015-Jul-29 09:33N 38°01' E 012°31'0 0.0
2015-Jul-29 08:33N 38°01' E 012°31'0 0.0
2015-Jul-29 07:33N 38°01' E 012°31'4 4.0
2015-Jul-29 06:33N 38°01' E 012°25'1111.1
2015-Jul-29 05:33N 38°12' E 012°29'15712.1
2015-Jul-28 16:33N 40°31' E 014°04'1311.9
2015-Jul-28 15:30N 40°42' E 014°12'9 0.8
2015-Jul-28 04:27N 40°50' E 014°16'3 2.9
2015-Jul-28 03:33N 40°48' E 014°16'0 0.3
2015-Jul-28 02:32N 40°47' E 014°16'0 0.4
2015-Jul-28 01:33N 40°47' E 014°15'1 0.6
2015-Jul-28 00:33N 40°47' E 014°15'8 8.0
2015-Jul-27 23:33N 40°41' E 014°07'10 9.6
2015-Jul-27 22:33N 40°38' E 013°55'1010.1
2015-Jul-27 21:33N 40°42' E 013°43'9 0.4
2015-Jul-26 22:19N 40°48' E 013°35'810.0
2015-Jul-26 21:33N 40°43' E 013°43'1110.8
2015-Jul-26 20:33N 40°38' E 013°55'1010.2
2015-Jul-26 19:33N 40°42' E 014°07'10 0.7
2015-Jul-26 04:31N 40°48' E 014°17'7 7.0
2015-Jul-26 03:31N 40°41' E 014°16'7 7.0
2015-Jul-26 02:33N 40°35' E 014°17'13911.3
2015-Jul-25 14:15N 38°29' E 015°35'811.6
2015-Jul-25 13:33N 38°22' E 015°40'10 9.9
2015-Jul-25 12:33N 38°13' E 015°37'3 2.6
2015-Jul-25 11:32N 38°11' E 015°33'0 0.0
2015-Jul-25 10:32N 38°11' E 015°33'0 0.0
2015-Jul-25 09:32N 38°11' E 015°33'0 0.0
2015-Jul-25 08:33N 38°11' E 015°33'0 0.0
2015-Jul-25 07:33N 38°11' E 015°33'0 0.0
2015-Jul-25 06:33N 38°11' E 015°33'3 2.8
2015-Jul-25 05:33N 38°12' E 015°37'8 8.4
2015-Jul-25 04:33N 38°04' E 015°36'9 8.7
2015-Jul-25 03:33N 37°55' E 015°39'10 9.5
2015-Jul-25 02:32N 37°52' E 015°51'  

Dump ship's entire track history